Diamond Island, Maine
Current Conditions -  °F | °C
As of 7:51 AM on Thursday 27 Nov 2014 (Local Time) from KPWM Reporting Station
Few Clouds Few Clouds  
Wind Chill: 24°   Ceiling: Unl
Heat Index: 32°   Visibility: 10mi
Dew Point: 26°   Wind: 9mph
Humidity: 79%   Direction: 320°NW
Pressure: 29.85"   Gusts: NA
Location:  43.6801°N, 70.1969°W
Report Text: KPWM 271251Z 32008KT 10SM FEW021 FEW100 00/M03 A2985 RMK AO2 PRESRR SLP108 T00001033 $
Loading
Personal Weather Stations






























Interactive Weather Map New forecast layout! Learn more

10-Day Weather Forecast

Advertisements
Track Severe Weather on mobile